sensor_id;sensor_type;location;lat;lon;timestamp;temperature;humidity
57636;DHT22;43465;50.728;4.160;2022-07-18T00:01:28;22.10;59.70
57636;DHT22;43465;50.728;4.160;2022-07-18T00:03:54;22.00;61.20
57636;DHT22;43465;50.728;4.160;2022-07-18T00:06:19;22.00;60.70
57636;DHT22;43465;50.728;4.160;2022-07-18T00:08:45;22.00;60.20
57636;DHT22;43465;50.728;4.160;2022-07-18T00:11:11;22.00;59.30
57636;DHT22;43465;50.728;4.160;2022-07-18T00:13:37;21.90;59.30
57636;DHT22;43465;50.728;4.160;2022-07-18T00:16:03;21.90;59.20
57636;DHT22;43465;50.728;4.160;2022-07-18T00:18:28;21.80;59.60
57636;DHT22;43465;50.728;4.160;2022-07-18T00:20:54;21.70;59.80
57636;DHT22;43465;50.728;4.160;2022-07-18T00:23:20;21.70;59.70
57636;DHT22;43465;50.728;4.160;2022-07-18T00:25:46;21.80;59.50
57636;DHT22;43465;50.728;4.160;2022-07-18T00:28:11;21.70;60.50
57636;DHT22;43465;50.728;4.160;2022-07-18T00:30:38;21.70;60.30
57636;DHT22;43465;50.728;4.160;2022-07-18T00:33:04;21.70;60.00
57636;DHT22;43465;50.728;4.160;2022-07-18T00:35:29;21.60;59.70
57636;DHT22;43465;50.728;4.160;2022-07-18T00:37:55;21.60;60.80
57636;DHT22;43465;50.728;4.160;2022-07-18T00:40:21;21.60;60.90
57636;DHT22;43465;50.728;4.160;2022-07-18T00:42:47;21.50;61.70
57636;DHT22;43465;50.728;4.160;2022-07-18T00:45:12;21.40;62.10
57636;DHT22;43465;50.728;4.160;2022-07-18T00:47:38;21.40;62.80
57636;DHT22;43465;50.728;4.160;2022-07-18T00:50:04;21.50;62.80
57636;DHT22;43465;50.728;4.160;2022-07-18T00:52:32;21.60;61.70
57636;DHT22;43465;50.728;4.160;2022-07-18T00:54:59;21.70;61.50
57636;DHT22;43465;50.728;4.160;2022-07-18T00:57:27;21.70;60.90
57636;DHT22;43465;50.728;4.160;2022-07-18T00:59:53;21.60;61.10
57636;DHT22;43465;50.728;4.160;2022-07-18T01:02:38;21.40;61.40
57636;DHT22;43465;50.728;4.160;2022-07-18T01:05:06;21.40;61.90
57636;DHT22;43465;50.728;4.160;2022-07-18T01:07:34;21.50;62.00
57636;DHT22;43465;50.728;4.160;2022-07-18T01:10:00;21.40;61.80
57636;DHT22;43465;50.728;4.160;2022-07-18T01:12:26;21.40;61.90
57636;DHT22;43465;50.728;4.160;2022-07-18T01:14:52;21.50;61.70
57636;DHT22;43465;50.728;4.160;2022-07-18T01:17:19;21.40;62.10
57636;DHT22;43465;50.728;4.160;2022-07-18T01:19:45;21.50;63.90
57636;DHT22;43465;50.728;4.160;2022-07-18T01:22:13;21.50;63.30
57636;DHT22;43465;50.728;4.160;2022-07-18T01:24:39;21.40;63.60
57636;DHT22;43465;50.728;4.160;2022-07-18T01:27:06;21.40;62.70
57636;DHT22;43465;50.728;4.160;2022-07-18T01:29:31;21.30;63.20
57636;DHT22;43465;50.728;4.160;2022-07-18T01:32:06;21.30;63.50
57636;DHT22;43465;50.728;4.160;2022-07-18T01:34:32;21.20;63.00
57636;DHT22;43465;50.728;4.160;2022-07-18T01:36:59;21.10;62.60
57636;DHT22;43465;50.728;4.160;2022-07-18T01:39:25;21.10;63.30
57636;DHT22;43465;50.728;4.160;2022-07-18T01:42:00;21.00;62.80
57636;DHT22;43465;50.728;4.160;2022-07-18T01:44:28;21.00;62.80
57636;DHT22;43465;50.728;4.160;2022-07-18T01:46:54;20.90;63.00
57636;DHT22;43465;50.728;4.160;2022-07-18T01:49:20;20.90;62.50
57636;DHT22;43465;50.728;4.160;2022-07-18T01:51:52;20.80;63.50
57636;DHT22;43465;50.728;4.160;2022-07-18T01:54:22;20.80;63.40
57636;DHT22;43465;50.728;4.160;2022-07-18T01:56:48;20.80;63.70
57636;DHT22;43465;50.728;4.160;2022-07-18T01:59:14;20.80;63.50
57636;DHT22;43465;50.728;4.160;2022-07-18T02:01:40;20.80;63.10
57636;DHT22;43465;50.728;4.160;2022-07-18T02:04:06;20.80;64.10
57636;DHT22;43465;50.728;4.160;2022-07-18T02:06:31;20.70;63.50
57636;DHT22;43465;50.728;4.160;2022-07-18T02:08:57;20.70;62.90
57636;DHT22;43465;50.728;4.160;2022-07-18T02:11:23;20.60;64.30
57636;DHT22;43465;50.728;4.160;2022-07-18T02:13:49;20.50;64.00
57636;DHT22;43465;50.728;4.160;2022-07-18T02:16:14;20.50;64.10
57636;DHT22;43465;50.728;4.160;2022-07-18T02:18:40;20.50;64.30
57636;DHT22;43465;50.728;4.160;2022-07-18T02:21:06;20.50;64.60
57636;DHT22;43465;50.728;4.160;2022-07-18T02:23:42;20.50;64.50
57636;DHT22;43465;50.728;4.160;2022-07-18T02:26:09;20.60;64.10
57636;DHT22;43465;50.728;4.160;2022-07-18T02:28:35;20.70;64.00
57636;DHT22;43465;50.728;4.160;2022-07-18T02:31:01;20.70;64.00
57636;DHT22;43465;50.728;4.160;2022-07-18T02:33:27;20.70;63.60
57636;DHT22;43465;50.728;4.160;2022-07-18T02:35:52;20.60;64.20
57636;DHT22;43465;50.728;4.160;2022-07-18T02:38:18;20.50;65.00
57636;DHT22;43465;50.728;4.160;2022-07-18T02:40:44;20.40;65.80
57636;DHT22;43465;50.728;4.160;2022-07-18T02:43:10;20.40;66.00
57636;DHT22;43465;50.728;4.160;2022-07-18T02:45:35;20.40;66.00
57636;DHT22;43465;50.728;4.160;2022-07-18T02:48:01;20.50;65.60
57636;DHT22;43465;50.728;4.160;2022-07-18T02:50:27;20.50;65.00
57636;DHT22;43465;50.728;4.160;2022-07-18T02:52:53;20.50;65.30
57636;DHT22;43465;50.728;4.160;2022-07-18T02:55:19;20.50;65.80
57636;DHT22;43465;50.728;4.160;2022-07-18T02:57:46;20.50;65.90
57636;DHT22;43465;50.728;4.160;2022-07-18T03:00:13;20.40;66.60
57636;DHT22;43465;50.728;4.160;2022-07-18T03:02:40;20.30;66.00
57636;DHT22;43465;50.728;4.160;2022-07-18T03:05:06;20.30;65.70
57636;DHT22;43465;50.728;4.160;2022-07-18T03:07:32;20.20;65.90
57636;DHT22;43465;50.728;4.160;2022-07-18T03:09:58;20.10;66.50
57636;DHT22;43465;50.728;4.160;2022-07-18T03:12:26;20.00;67.70
57636;DHT22;43465;50.728;4.160;2022-07-18T03:14:52;20.00;67.50
57636;DHT22;43465;50.728;4.160;2022-07-18T03:17:18;20.10;67.20
57636;DHT22;43465;50.728;4.160;2022-07-18T03:19:44;20.10;67.20
57636;DHT22;43465;50.728;4.160;2022-07-18T03:22:09;20.00;66.80
57636;DHT22;43465;50.728;4.160;2022-07-18T03:24:35;20.00;67.30
57636;DHT22;43465;50.728;4.160;2022-07-18T03:27:00;19.90;67.40
57636;DHT22;43465;50.728;4.160;2022-07-18T03:29:26;19.90;67.80
57636;DHT22;43465;50.728;4.160;2022-07-18T03:31:52;19.80;68.40
57636;DHT22;43465;50.728;4.160;2022-07-18T03:34:18;19.70;68.70
57636;DHT22;43465;50.728;4.160;2022-07-18T03:36:44;19.70;69.40
57636;DHT22;43465;50.728;4.160;2022-07-18T03:39:12;19.60;69.90
57636;DHT22;43465;50.728;4.160;2022-07-18T03:41:38;19.60;70.60
57636;DHT22;43465;50.728;4.160;2022-07-18T03:44:04;19.50;70.50
57636;DHT22;43465;50.728;4.160;2022-07-18T03:46:30;19.50;70.30
57636;DHT22;43465;50.728;4.160;2022-07-18T03:48:56;19.50;70.20
57636;DHT22;43465;50.728;4.160;2022-07-18T03:51:22;19.40;69.50
57636;DHT22;43465;50.728;4.160;2022-07-18T03:53:48;19.50;69.40
57636;DHT22;43465;50.728;4.160;2022-07-18T03:56:14;19.50;68.50
57636;DHT22;43465;50.728;4.160;2022-07-18T03:58:40;19.50;67.80
57636;DHT22;43465;50.728;4.160;2022-07-18T04:01:06;19.50;67.40
57636;DHT22;43465;50.728;4.160;2022-07-18T04:03:32;19.60;67.60
57636;DHT22;43465;50.728;4.160;2022-07-18T04:05:57;19.70;67.80
57636;DHT22;43465;50.728;4.160;2022-07-18T04:08:27;19.70;67.50
57636;DHT22;43465;50.728;4.160;2022-07-18T04:10:52;19.70;67.60
57636;DHT22;43465;50.728;4.160;2022-07-18T04:13:18;19.70;67.40
57636;DHT22;43465;50.728;4.160;2022-07-18T04:15:44;19.70;68.10
57636;DHT22;43465;50.728;4.160;2022-07-18T04:18:09;19.70;67.70
57636;DHT22;43465;50.728;4.160;2022-07-18T04:20:36;19.70;67.70
57636;DHT22;43465;50.728;4.160;2022-07-18T04:23:04;19.80;67.80
57636;DHT22;43465;50.728;4.160;2022-07-18T04:25:36;19.80;67.80
57636;DHT22;43465;50.728;4.160;2022-07-18T04:28:03;19.90;67.20
57636;DHT22;43465;50.728;4.160;2022-07-18T04:30:29;20.00;67.10
57636;DHT22;43465;50.728;4.160;2022-07-18T04:32:56;20.00;66.90
57636;DHT22;43465;50.728;4.160;2022-07-18T04:35:23;20.10;66.90
57636;DHT22;43465;50.728;4.160;2022-07-18T04:37:51;20.10;67.00
57636;DHT22;43465;50.728;4.160;2022-07-18T04:40:17;20.10;67.00
57636;DHT22;43465;50.728;4.160;2022-07-18T04:42:44;20.10;66.90
57636;DHT22;43465;50.728;4.160;2022-07-18T04:45:10;20.10;67.10
57636;DHT22;43465;50.728;4.160;2022-07-18T04:47:36;20.10;67.00
57636;DHT22;43465;50.728;4.160;2022-07-18T04:50:03;20.20;67.00
57636;DHT22;43465;50.728;4.160;2022-07-18T04:52:39;20.20;67.40
57636;DHT22;43465;50.728;4.160;2022-07-18T04:55:09;20.20;68.40
57636;DHT22;43465;50.728;4.160;2022-07-18T04:57:35;20.20;69.20
57636;DHT22;43465;50.728;4.160;2022-07-18T05:00:04;20.30;69.00
57636;DHT22;43465;50.728;4.160;2022-07-18T05:02:30;20.30;69.00
57636;DHT22;43465;50.728;4.160;2022-07-18T05:04:56;20.30;69.80
57636;DHT22;43465;50.728;4.160;2022-07-18T05:07:22;20.20;70.50
57636;DHT22;43465;50.728;4.160;2022-07-18T05:09:47;20.20;71.30
57636;DHT22;43465;50.728;4.160;2022-07-18T05:12:16;20.20;71.80
57636;DHT22;43465;50.728;4.160;2022-07-18T05:14:44;20.20;72.30
57636;DHT22;43465;50.728;4.160;2022-07-18T05:17:09;20.20;72.40
57636;DHT22;43465;50.728;4.160;2022-07-18T05:19:35;20.20;72.20
57636;DHT22;43465;50.728;4.160;2022-07-18T05:22:01;20.20;72.00
57636;DHT22;43465;50.728;4.160;2022-07-18T05:24:26;20.30;72.00
57636;DHT22;43465;50.728;4.160;2022-07-18T05:26:52;20.30;72.20
57636;DHT22;43465;50.728;4.160;2022-07-18T05:29:18;20.40;72.00
57636;DHT22;43465;50.728;4.160;2022-07-18T05:31:43;20.40;72.20
57636;DHT22;43465;50.728;4.160;2022-07-18T05:34:09;20.50;72.90
57636;DHT22;43465;50.728;4.160;2022-07-18T05:36:35;20.50;72.90
57636;DHT22;43465;50.728;4.160;2022-07-18T05:39:02;20.60;72.90
57636;DHT22;43465;50.728;4.160;2022-07-18T05:41:28;20.70;73.00
57636;DHT22;43465;50.728;4.160;2022-07-18T05:43:53;20.70;72.80
57636;DHT22;43465;50.728;4.160;2022-07-18T05:46:19;20.80;72.80
57636;DHT22;43465;50.728;4.160;2022-07-18T05:48:45;20.90;72.80
57636;DHT22;43465;50.728;4.160;2022-07-18T05:51:11;20.90;72.10
57636;DHT22;43465;50.728;4.160;2022-07-18T05:53:37;21.00;71.90
57636;DHT22;43465;50.728;4.160;2022-07-18T05:56:03;21.10;71.80
57636;DHT22;43465;50.728;4.160;2022-07-18T05:58:29;21.10;74.10
57636;DHT22;43465;50.728;4.160;2022-07-18T06:00:55;21.10;74.80
57636;DHT22;43465;50.728;4.160;2022-07-18T06:03:20;21.20;75.10
57636;DHT22;43465;50.728;4.160;2022-07-18T06:05:46;21.30;75.20
57636;DHT22;43465;50.728;4.160;2022-07-18T06:08:12;21.30;75.70
57636;DHT22;43465;50.728;4.160;2022-07-18T06:10:37;21.30;74.30
57636;DHT22;43465;50.728;4.160;2022-07-18T06:13:03;21.50;73.10
57636;DHT22;43465;50.728;4.160;2022-07-18T06:15:29;21.60;71.40
57636;DHT22;43465;50.728;4.160;2022-07-18T06:17:55;21.70;70.10
57636;DHT22;43465;50.728;4.160;2022-07-18T06:20:21;21.80;68.90
57636;DHT22;43465;50.728;4.160;2022-07-18T06:22:46;21.90;68.10
57636;DHT22;43465;50.728;4.160;2022-07-18T06:25:12;22.00;67.00
57636;DHT22;43465;50.728;4.160;2022-07-18T06:27:38;22.10;67.30
57636;DHT22;43465;50.728;4.160;2022-07-18T06:30:04;22.20;68.30
57636;DHT22;43465;50.728;4.160;2022-07-18T06:32:31;22.30;68.30
57636;DHT22;43465;50.728;4.160;2022-07-18T06:34:57;22.40;67.20
57636;DHT22;43465;50.728;4.160;2022-07-18T06:37:22;22.50;68.50
57636;DHT22;43465;50.728;4.160;2022-07-18T06:39:48;22.50;68.30
57636;DHT22;43465;50.728;4.160;2022-07-18T06:42:13;22.60;69.50
57636;DHT22;43465;50.728;4.160;2022-07-18T06:44:39;22.70;71.30
57636;DHT22;43465;50.728;4.160;2022-07-18T06:47:05;22.70;71.50
57636;DHT22;43465;50.728;4.160;2022-07-18T06:49:30;22.80;72.30
57636;DHT22;43465;50.728;4.160;2022-07-18T06:51:56;22.90;71.30
57636;DHT22;43465;50.728;4.160;2022-07-18T06:54:22;23.00;71.90
57636;DHT22;43465;50.728;4.160;2022-07-18T06:56:53;23.10;71.60
57636;DHT22;43465;50.728;4.160;2022-07-18T06:59:20;23.20;71.20
57636;DHT22;43465;50.728;4.160;2022-07-18T07:01:45;23.30;71.40
57636;DHT22;43465;50.728;4.160;2022-07-18T07:04:11;23.50;72.00
57636;DHT22;43465;50.728;4.160;2022-07-18T07:06:37;23.60;71.10
57636;DHT22;43465;50.728;4.160;2022-07-18T07:09:04;23.70;70.50
57636;DHT22;43465;50.728;4.160;2022-07-18T07:11:31;23.70;70.40
57636;DHT22;43465;50.728;4.160;2022-07-18T07:13:56;23.80;70.90
57636;DHT22;43465;50.728;4.160;2022-07-18T07:16:22;24.00;71.50
57636;DHT22;43465;50.728;4.160;2022-07-18T07:18:48;24.00;71.30
57636;DHT22;43465;50.728;4.160;2022-07-18T07:21:13;24.10;70.90
57636;DHT22;43465;50.728;4.160;2022-07-18T07:23:39;24.20;71.90
57636;DHT22;43465;50.728;4.160;2022-07-18T07:26:06;24.40;68.60
57636;DHT22;43465;50.728;4.160;2022-07-18T07:28:32;24.40;68.50
57636;DHT22;43465;50.728;4.160;2022-07-18T07:30:58;24.50;68.10
57636;DHT22;43465;50.728;4.160;2022-07-18T07:33:24;24.50;68.00
57636;DHT22;43465;50.728;4.160;2022-07-18T07:35:50;24.70;68.60
57636;DHT22;43465;50.728;4.160;2022-07-18T07:38:15;24.80;68.60
57636;DHT22;43465;50.728;4.160;2022-07-18T07:40:46;24.90;69.00
57636;DHT22;43465;50.728;4.160;2022-07-18T07:43:13;25.00;69.40
57636;DHT22;43465;50.728;4.160;2022-07-18T07:45:40;25.10;66.90
57636;DHT22;43465;50.728;4.160;2022-07-18T07:48:06;25.30;68.20
57636;DHT22;43465;50.728;4.160;2022-07-18T07:50:33;25.40;67.10
57636;DHT22;43465;50.728;4.160;2022-07-18T07:52:59;25.50;66.70
57636;DHT22;43465;50.728;4.160;2022-07-18T07:55:26;25.60;65.20
57636;DHT22;43465;50.728;4.160;2022-07-18T07:57:51;25.70;65.50
57636;DHT22;43465;50.728;4.160;2022-07-18T08:00:17;25.80;65.50
57636;DHT22;43465;50.728;4.160;2022-07-18T08:02:59;26.00;63.50
57636;DHT22;43465;50.728;4.160;2022-07-18T08:05:31;26.10;62.70
57636;DHT22;43465;50.728;4.160;2022-07-18T08:07:58;26.20;62.40
57636;DHT22;43465;50.728;4.160;2022-07-18T08:10:24;26.30;59.60
57636;DHT22;43465;50.728;4.160;2022-07-18T08:12:51;26.40;62.30
57636;DHT22;43465;50.728;4.160;2022-07-18T08:15:17;26.50;60.80
57636;DHT22;43465;50.728;4.160;2022-07-18T08:17:43;26.60;58.60
57636;DHT22;43465;50.728;4.160;2022-07-18T08:20:09;26.70;57.80
57636;DHT22;43465;50.728;4.160;2022-07-18T08:22:51;26.80;60.00
57636;DHT22;43465;50.728;4.160;2022-07-18T08:25:18;26.90;57.80
57636;DHT22;43465;50.728;4.160;2022-07-18T08:27:44;27.10;56.80
57636;DHT22;43465;50.728;4.160;2022-07-18T08:30:10;27.20;58.00
57636;DHT22;43465;50.728;4.160;2022-07-18T08:32:35;27.30;57.60
57636;DHT22;43465;50.728;4.160;2022-07-18T08:35:01;27.40;58.70
57636;DHT22;43465;50.728;4.160;2022-07-18T08:37:27;27.50;57.70
57636;DHT22;43465;50.728;4.160;2022-07-18T08:39:52;27.60;55.20
57636;DHT22;43465;50.728;4.160;2022-07-18T08:42:21;27.70;56.30
57636;DHT22;43465;50.728;4.160;2022-07-18T08:44:49;27.80;57.30
57636;DHT22;43465;50.728;4.160;2022-07-18T08:47:17;27.90;52.20
57636;DHT22;43465;50.728;4.160;2022-07-18T08:49:44;28.00;53.00
57636;DHT22;43465;50.728;4.160;2022-07-18T08:52:10;28.10;51.80
57636;DHT22;43465;50.728;4.160;2022-07-18T08:54:36;28.20;51.10
57636;DHT22;43465;50.728;4.160;2022-07-18T08:57:02;28.20;51.50
57636;DHT22;43465;50.728;4.160;2022-07-18T08:59:27;28.30;50.80
57636;DHT22;43465;50.728;4.160;2022-07-18T09:01:53;28.40;49.40
57636;DHT22;43465;50.728;4.160;2022-07-18T09:04:36;28.50;51.00
57636;DHT22;43465;50.728;4.160;2022-07-18T09:07:02;28.60;50.40
57636;DHT22;43465;50.728;4.160;2022-07-18T09:09:29;28.70;51.40
57636;DHT22;43465;50.728;4.160;2022-07-18T09:12:04;28.70;49.80
57636;DHT22;43465;50.728;4.160;2022-07-18T09:17:09;29.00;51.10
57636;DHT22;43465;50.728;4.160;2022-07-18T09:19:43;29.00;50.30
57636;DHT22;43465;50.728;4.160;2022-07-18T09:22:21;29.10;49.40
57636;DHT22;43465;50.728;4.160;2022-07-18T09:24:59;29.20;51.40
57636;DHT22;43465;50.728;4.160;2022-07-18T09:32:35;29.50;52.90
57636;DHT22;43465;50.728;4.160;2022-07-18T09:35:07;29.60;49.20
57636;DHT22;43465;50.728;4.160;2022-07-18T09:37:33;29.70;46.50
57636;DHT22;43465;50.728;4.160;2022-07-18T09:40:22;29.80;49.50
57636;DHT22;43465;50.728;4.160;2022-07-18T09:42:55;29.90;47.90
57636;DHT22;43465;50.728;4.160;2022-07-18T09:45:27;30.00;49.10
57636;DHT22;43465;50.728;4.160;2022-07-18T09:47:55;30.10;46.30
57636;DHT22;43465;50.728;4.160;2022-07-18T09:50:33;30.20;48.50
57636;DHT22;43465;50.728;4.160;2022-07-18T09:53:12;30.30;47.40
57636;DHT22;43465;50.728;4.160;2022-07-18T09:58:31;30.40;49.40
57636;DHT22;43465;50.728;4.160;2022-07-18T10:00:59;30.40;49.30
57636;DHT22;43465;50.728;4.160;2022-07-18T10:03:25;30.60;51.20
57636;DHT22;43465;50.728;4.160;2022-07-18T10:05:52;30.70;46.10
57636;DHT22;43465;50.728;4.160;2022-07-18T10:08:20;30.80;46.40
57636;DHT22;43465;50.728;4.160;2022-07-18T10:10:47;30.80;45.80
57636;DHT22;43465;50.728;4.160;2022-07-18T10:13:14;30.90;45.40
57636;DHT22;43465;50.728;4.160;2022-07-18T10:15:42;30.90;43.80
57636;DHT22;43465;50.728;4.160;2022-07-18T10:18:12;31.00;44.00
57636;DHT22;43465;50.728;4.160;2022-07-18T10:20:47;31.10;46.20
57636;DHT22;43465;50.728;4.160;2022-07-18T10:23:20;31.20;45.60
57636;DHT22;43465;50.728;4.160;2022-07-18T10:31:38;31.40;45.50
57636;DHT22;43465;50.728;4.160;2022-07-18T10:39:17;31.60;43.20
57636;DHT22;43465;50.728;4.160;2022-07-18T11:00:12;32.20;41.90
57636;DHT22;43465;50.728;4.160;2022-07-18T11:16:04;32.60;40.10
57636;DHT22;43465;50.728;4.160;2022-07-18T11:18:32;32.60;41.60
57636;DHT22;43465;50.728;4.160;2022-07-18T11:20:58;32.60;42.10
57636;DHT22;43465;50.728;4.160;2022-07-18T11:23:26;32.60;40.90
57636;DHT22;43465;50.728;4.160;2022-07-18T11:25:57;32.70;40.50
57636;DHT22;43465;50.728;4.160;2022-07-18T11:28:27;32.80;41.30
57636;DHT22;43465;50.728;4.160;2022-07-18T11:31:08;32.90;42.10
57636;DHT22;43465;50.728;4.160;2022-07-18T11:33:40;33.00;40.20
57636;DHT22;43465;50.728;4.160;2022-07-18T11:36:08;33.00;38.40
57636;DHT22;43465;50.728;4.160;2022-07-18T11:38:35;33.00;39.00
57636;DHT22;43465;50.728;4.160;2022-07-18T11:41:02;32.90;41.00
57636;DHT22;43465;50.728;4.160;2022-07-18T11:43:28;33.00;41.00
57636;DHT22;43465;50.728;4.160;2022-07-18T11:46:09;33.00;40.50
57636;DHT22;43465;50.728;4.160;2022-07-18T11:48:35;33.10;38.80
57636;DHT22;43465;50.728;4.160;2022-07-18T11:51:02;33.10;42.00
57636;DHT22;43465;50.728;4.160;2022-07-18T11:53:33;33.20;40.50
57636;DHT22;43465;50.728;4.160;2022-07-18T11:56:04;33.20;39.10
57636;DHT22;43465;50.728;4.160;2022-07-18T11:58:36;33.40;40.60
57636;DHT22;43465;50.728;4.160;2022-07-18T12:01:03;33.50;40.70
57636;DHT22;43465;50.728;4.160;2022-07-18T12:03:29;33.50;39.60
57636;DHT22;43465;50.728;4.160;2022-07-18T12:05:56;33.60;38.80
57636;DHT22;43465;50.728;4.160;2022-07-18T12:08:35;33.60;38.40
57636;DHT22;43465;50.728;4.160;2022-07-18T12:13:46;33.60;40.00
57636;DHT22;43465;50.728;4.160;2022-07-18T12:19:15;33.70;40.30
57636;DHT22;43465;50.728;4.160;2022-07-18T12:21:47;33.80;40.00
57636;DHT22;43465;50.728;4.160;2022-07-18T12:24:31;33.80;39.80
57636;DHT22;43465;50.728;4.160;2022-07-18T12:35:22;33.90;40.30
57636;DHT22;43465;50.728;4.160;2022-07-18T12:38:04;33.90;36.00
57636;DHT22;43465;50.728;4.160;2022-07-18T12:45:38;34.20;39.80
57636;DHT22;43465;50.728;4.160;2022-07-18T12:48:06;34.20;37.80
57636;DHT22;43465;50.728;4.160;2022-07-18T12:50:32;34.20;38.80
57636;DHT22;43465;50.728;4.160;2022-07-18T12:52:58;34.30;39.80
57636;DHT22;43465;50.728;4.160;2022-07-18T12:55:25;34.40;38.70
57636;DHT22;43465;50.728;4.160;2022-07-18T12:57:51;34.40;40.90
57636;DHT22;43465;50.728;4.160;2022-07-18T13:00:17;34.50;42.20
57636;DHT22;43465;50.728;4.160;2022-07-18T13:02:44;34.50;40.40
57636;DHT22;43465;50.728;4.160;2022-07-18T13:05:10;34.50;37.10
57636;DHT22;43465;50.728;4.160;2022-07-18T13:07:36;34.60;41.00
57636;DHT22;43465;50.728;4.160;2022-07-18T13:10:02;34.70;38.40
57636;DHT22;43465;50.728;4.160;2022-07-18T13:12:28;34.70;38.00
57636;DHT22;43465;50.728;4.160;2022-07-18T13:14:53;34.70;37.00
57636;DHT22;43465;50.728;4.160;2022-07-18T13:17:19;34.70;37.50
57636;DHT22;43465;50.728;4.160;2022-07-18T13:19:44;34.70;37.90
57636;DHT22;43465;50.728;4.160;2022-07-18T13:22:11;34.60;36.00
57636;DHT22;43465;50.728;4.160;2022-07-18T13:24:36;34.50;38.00
57636;DHT22;43465;50.728;4.160;2022-07-18T13:27:04;34.40;38.70
57636;DHT22;43465;50.728;4.160;2022-07-18T13:29:30;34.40;35.60
57636;DHT22;43465;50.728;4.160;2022-07-18T13:31:55;34.40;39.90
57636;DHT22;43465;50.728;4.160;2022-07-18T13:34:22;34.50;38.20
57636;DHT22;43465;50.728;4.160;2022-07-18T13:36:49;34.50;38.60
57636;DHT22;43465;50.728;4.160;2022-07-18T13:39:16;34.60;36.60
57636;DHT22;43465;50.728;4.160;2022-07-18T13:41:41;34.70;38.40
57636;DHT22;43465;50.728;4.160;2022-07-18T13:44:07;34.80;37.70
57636;DHT22;43465;50.728;4.160;2022-07-18T13:46:33;34.80;36.60
57636;DHT22;43465;50.728;4.160;2022-07-18T13:48:58;34.80;37.60
57636;DHT22;43465;50.728;4.160;2022-07-18T13:51:24;34.80;38.00
57636;DHT22;43465;50.728;4.160;2022-07-18T13:53:50;34.80;35.90
57636;DHT22;43465;50.728;4.160;2022-07-18T13:56:15;34.80;38.40
57636;DHT22;43465;50.728;4.160;2022-07-18T13:58:41;34.80;40.20
57636;DHT22;43465;50.728;4.160;2022-07-18T14:01:07;34.80;39.70
57636;DHT22;43465;50.728;4.160;2022-07-18T14:03:33;34.90;35.10
57636;DHT22;43465;50.728;4.160;2022-07-18T14:05:59;34.80;34.10
57636;DHT22;43465;50.728;4.160;2022-07-18T14:08:24;34.80;35.30
57636;DHT22;43465;50.728;4.160;2022-07-18T14:10:50;34.80;37.20
57636;DHT22;43465;50.728;4.160;2022-07-18T14:13:16;35.00;38.40
57636;DHT22;43465;50.728;4.160;2022-07-18T14:15:42;35.20;37.70
57636;DHT22;43465;50.728;4.160;2022-07-18T14:18:07;35.40;37.20
57636;DHT22;43465;50.728;4.160;2022-07-18T14:20:33;35.70;37.70
57636;DHT22;43465;50.728;4.160;2022-07-18T14:22:59;36.00;36.80
57636;DHT22;43465;50.728;4.160;2022-07-18T14:25:24;36.50;37.80
57636;DHT22;43465;50.728;4.160;2022-07-18T14:27:50;37.10;33.80
57636;DHT22;43465;50.728;4.160;2022-07-18T14:30:16;37.90;31.70
57636;DHT22;43465;50.728;4.160;2022-07-18T14:32:43;38.80;33.20
57636;DHT22;43465;50.728;4.160;2022-07-18T14:35:09;39.80;31.60
57636;DHT22;43465;50.728;4.160;2022-07-18T14:37:35;40.90;30.70
57636;DHT22;43465;50.728;4.160;2022-07-18T14:40:01;41.90;28.60
57636;DHT22;43465;50.728;4.160;2022-07-18T14:42:27;42.90;28.80
57636;DHT22;43465;50.728;4.160;2022-07-18T14:44:53;43.70;27.60
57636;DHT22;43465;50.728;4.160;2022-07-18T14:47:19;44.40;27.80
57636;DHT22;43465;50.728;4.160;2022-07-18T14:49:45;44.90;27.00
57636;DHT22;43465;50.728;4.160;2022-07-18T14:52:11;45.50;26.70
57636;DHT22;43465;50.728;4.160;2022-07-18T14:54:37;45.90;26.80
57636;DHT22;43465;50.728;4.160;2022-07-18T14:57:03;46.20;27.10
57636;DHT22;43465;50.728;4.160;2022-07-18T14:59:30;46.50;25.90
57636;DHT22;43465;50.728;4.160;2022-07-18T15:01:55;46.60;26.60
57636;DHT22;43465;50.728;4.160;2022-07-18T15:04:24;46.90;25.50
57636;DHT22;43465;50.728;4.160;2022-07-18T15:06:50;47.10;24.90
57636;DHT22;43465;50.728;4.160;2022-07-18T15:09:16;47.10;24.30
57636;DHT22;43465;50.728;4.160;2022-07-18T15:11:42;47.40;25.00
57636;DHT22;43465;50.728;4.160;2022-07-18T15:14:08;46.90;23.10
57636;DHT22;43465;50.728;4.160;2022-07-18T15:16:34;46.60;23.50
57636;DHT22;43465;50.728;4.160;2022-07-18T15:19:00;46.40;23.10
57636;DHT22;43465;50.728;4.160;2022-07-18T15:21:25;45.80;24.10
57636;DHT22;43465;50.728;4.160;2022-07-18T15:23:51;45.10;24.40
57636;DHT22;43465;50.728;4.160;2022-07-18T15:26:17;45.40;23.60
57636;DHT22;43465;50.728;4.160;2022-07-18T15:28:42;45.80;24.40
57636;DHT22;43465;50.728;4.160;2022-07-18T15:31:08;46.20;25.50
57636;DHT22;43465;50.728;4.160;2022-07-18T15:33:34;46.30;23.30
57636;DHT22;43465;50.728;4.160;2022-07-18T15:35:59;46.50;26.30
57636;DHT22;43465;50.728;4.160;2022-07-18T15:38:25;46.60;23.80
57636;DHT22;43465;50.728;4.160;2022-07-18T15:40:51;46.70;23.40
57636;DHT22;43465;50.728;4.160;2022-07-18T15:43:16;46.70;24.40
57636;DHT22;43465;50.728;4.160;2022-07-18T15:45:42;47.00;22.90
57636;DHT22;43465;50.728;4.160;2022-07-18T15:48:08;47.40;24.90
57636;DHT22;43465;50.728;4.160;2022-07-18T15:50:34;47.70;24.80
57636;DHT22;43465;50.728;4.160;2022-07-18T15:53:08;47.50;24.20
57636;DHT22;43465;50.728;4.160;2022-07-18T15:55:34;47.10;24.10
57636;DHT22;43465;50.728;4.160;2022-07-18T15:58:00;45.90;24.70
57636;DHT22;43465;50.728;4.160;2022-07-18T16:00:27;44.50;26.20
57636;DHT22;43465;50.728;4.160;2022-07-18T16:02:53;43.20;25.80
57636;DHT22;43465;50.728;4.160;2022-07-18T16:05:19;41.40;25.90
57636;DHT22;43465;50.728;4.160;2022-07-18T16:07:45;40.30;27.60
57636;DHT22;43465;50.728;4.160;2022-07-18T16:10:11;39.50;27.40
57636;DHT22;43465;50.728;4.160;2022-07-18T16:12:38;38.80;27.30
57636;DHT22;43465;50.728;4.160;2022-07-18T16:15:07;38.20;27.00
57636;DHT22;43465;50.728;4.160;2022-07-18T16:17:32;37.90;29.20
57636;DHT22;43465;50.728;4.160;2022-07-18T16:19:58;37.60;29.30
57636;DHT22;43465;50.728;4.160;2022-07-18T16:22:24;37.30;27.70
57636;DHT22;43465;50.728;4.160;2022-07-18T16:24:49;37.10;27.70
57636;DHT22;43465;50.728;4.160;2022-07-18T16:27:15;36.80;28.20
57636;DHT22;43465;50.728;4.160;2022-07-18T16:29:42;36.80;28.20
57636;DHT22;43465;50.728;4.160;2022-07-18T16:32:08;36.80;28.90
57636;DHT22;43465;50.728;4.160;2022-07-18T16:34:34;36.80;27.40
57636;DHT22;43465;50.728;4.160;2022-07-18T16:37:00;36.60;28.60
57636;DHT22;43465;50.728;4.160;2022-07-18T16:39:26;36.50;28.80
57636;DHT22;43465;50.728;4.160;2022-07-18T16:41:52;36.40;29.20